• Join FlightAware (Why Join?)
  • Login
  • US Flag 
02:11AM EDT


 

Airport Tracker/Info


-or-


 

Live Flight TrackerFlight Track Log ✈ ASQ6115 ✈ 27-Sep-2013 ✈ KIAH - KBNA

Flight Track Log - Related Links

Times and Time Zones

All times are in EDT time to prevent confusion due to time zone crossing. See the ASQ6115 flight status page for this flight to view local times or setup timezone preferences in your user account.

Time Position Orientation Groundspeed Altitude Reporting Facility
EDT Latitude Longitude Course Direction KTS MPH feet Rate Location/Type
08:56AM 29.9575 -95.3442 32° Northeast 164 189 900  Level Houston Center
08:57AM 29.9731 -95.3978 289° West 279 321 2,600 1,440 Climbing Houston Center
08:58AM 30.0214 -95.3719 25° Northeast 267 307 4,100 2,220 Climbing Houston Center
08:58AM 30.0400 -95.3486 47° Northeast 267 307 4,900 2,400 Climbing Houston Center
08:59AM 30.2625 -94.9898 35° Northeast  Level Estimated
08:59AM 30.0872 -95.2978 43° Northeast 275 316 6,600  Level Houston Center
08:59AM 30.0972 -95.2861 45° Northeast 280 322 6,900 1,800 Climbing Houston Center
09:00AM 30.3319 -94.9015 41° Northeast  Level Estimated
09:00AM 30.1467 -95.2331 43° Northeast 290 334 8,500  Level Houston Center
09:01AM 30.4012 -94.8132 32° Northeast  Level Estimated
09:01AM 30.2133 -95.1792 35° Northeast 290 334 10,200  Level Houston Center
09:02AM 30.2867 -95.1183 36° Northeast 320 368 10,700 600 Climbing Houston Center
09:03AM 30.3653 -95.0508 37° Northeast 350 403 11,500 900 Climbing Houston Center
09:04AM 30.4506 -94.9797 36° Northeast 360 414 12,600 960 Climbing Houston Center
09:05AM 30.5333 -94.9106 36° Northeast 366 421 13,500 960 Climbing Houston Center
09:06AM 30.6175 -94.8431 35° Northeast 367 422 14,600 780 Climbing Houston Center
09:07AM 30.7036 -94.7761 34° Northeast 373 429 15,200 720 Climbing Houston Center
09:08AM 30.8100 -94.6947 33° Northeast 383 441 16,100 780 Climbing Houston Center
09:09AM 30.8994 -94.6256 34° Northeast 388 447 16,900 900 Climbing Houston Center
09:10AM 30.9881 -94.5575 33° Northeast 386 444 18,000 1,020 Climbing Houston Center
09:11AM 31.0761 -94.4889 34° Northeast 385 443 19,100 1,020 Climbing Houston Center
09:12AM 31.1633 -94.4206 34° Northeast 383 441 20,200 1,140 Climbing Houston Center
09:13AM 31.2708 -94.3375 33° Northeast 388 447 21,500 1,140 Climbing Houston Center
09:14AM 31.3597 -94.2675 34° Northeast 388 447 22,600 1,020 Climbing Houston Center
09:15AM 31.4475 -94.1997 33° Northeast 381 438 23,700 1,020 Climbing Houston Center
09:16AM 31.5350 -94.1306 34° Northeast 381 438 24,800 1,020 Climbing Houston Center
09:17AM 31.6061 -94.0414 47° Northeast 381 438 25,900 1,020 Climbing Houston Center
09:18AM 31.6725 -93.9472 50° Northeast 377 434 27,000 1,140 Climbing Houston Center
09:19AM 31.7503 -93.8358 51° Northeast 368 423 28,300 1,140 Climbing Houston Center
09:20AM 31.8131 -93.7450 51° Northeast 365 420 29,400 1,020 Climbing Houston Center
09:21AM 31.8769 -93.6544 50° Northeast 360 414 30,500 1,020 Climbing Houston Center
09:22AM 31.9386 -93.5653 51° Northeast 353 406 31,600 840 Climbing Houston Center
09:23AM 32.0014 -93.4750 51° Northeast 354 407 32,300 720 Climbing Houston Center
09:26AM 32.1353 -93.2869 50° Northeast 361 415 33,800 720 Climbing Fort Worth Center
09:27AM 32.2047 -93.1758 54° Northeast 371 427 34,600 600 Climbing Fort Worth Center
09:28AM 32.2544 -93.1022 51° Northeast 371 427 35,000 180 Climbing Fort Worth Center
09:29AM 32.3322 -92.9978 49° Northeast 371 427 35,000  Level Fort Worth Center
09:30AM 32.4056 -92.8908 51° Northeast 389 448 35,000  Level Fort Worth Center
09:31AM 32.4906 -92.7611 52° Northeast 424 488 35,000  Level Fort Worth Center
09:32AM 32.5678 -92.6486 51° Northeast 434 499 35,000  Level Fort Worth Center
09:33AM 32.6389 -92.5439 51° Northeast 429 494 35,000  Level Fort Worth Center
09:34AM 32.7100 -92.4364 52° Northeast 423 487 35,000  Level Fort Worth Center
09:36AM 32.8458 -92.2367 51° Northeast 394 453 35,000  Level Memphis Center
09:37AM 32.9142 -92.1364 51° Northeast 394 453 35,000  Level Memphis Center
09:38AM 32.9822 -92.0389 50° Northeast 389 448 35,000  Level Memphis Center
09:39AM 33.0419 -91.9383 55° Northeast 383 441 35,000  Level Memphis Center
09:40AM 33.1119 -91.8356 51° Northeast 383 441 35,000  Level Memphis Center
09:41AM 33.1842 -91.7275 51° Northeast 395 455 35,000  Level Memphis Center
09:42AM 33.2564 -91.6192 51° Northeast 403 464 35,000  Level Memphis Center
09:43AM 33.3283 -91.5033 53° Northeast 415 478 35,000  Level Memphis Center
09:44AM 33.4131 -91.3800 51° Northeast 426 490 35,000  Level Memphis Center
09:45AM 33.4869 -91.2664 52° Northeast 426 490 35,000  Level Memphis Center
09:46AM 33.5608 -91.1575 51° Northeast 426 490 35,000  Level Memphis Center
09:47AM 33.6367 -91.0433 51° Northeast 426 490 35,000  Level Memphis Center
09:48AM 33.7081 -90.9292 53° Northeast 426 490 35,000  Level Memphis Center
09:49AM 33.7817 -90.8144 52° Northeast 426 490 35,000  Level Memphis Center
09:50AM 33.8531 -90.7022 53° Northeast 426 490 35,000  Level Memphis Center
09:51AM 33.9283 -90.5875 52° Northeast 426 490 35,000  Level Memphis Center
09:52AM 33.9994 -90.4750 53° Northeast 426 490 35,000  Level Memphis Center
09:53AM 34.0725 -90.3622 52° Northeast 431 496 35,000  Level Memphis Center
09:54AM 34.1433 -90.2492 53° Northeast 420 483 35,000  Level Memphis Center
09:55AM 34.2183 -90.1336 52° Northeast 420 483 35,000  Level Memphis Center
09:56AM 34.2892 -90.0203 53° Northeast 420 483 35,000  Level Memphis Center
09:57AM 34.3597 -89.9042 54° Northeast 425 489 35,000  Level Memphis Center
09:58AM 34.4322 -89.7906 52° Northeast 425 489 35,000  Level Memphis Center
09:59AM 34.5025 -89.6742 54° Northeast 425 489 35,000  Level Memphis Center
10:00AM 34.5750 -89.5575 53° Northeast 425 489 35,000  Level Memphis Center
10:01AM 34.6472 -89.4433 52° Northeast 430 495 35,000  Level Memphis Center
10:02AM 34.7192 -89.3264 53° Northeast 430 495 35,000 -60 Level Memphis Center
10:03AM 34.7831 -89.2242 53° Northeast 430 495 34,900 -780 Descending Memphis Center
10:04AM 34.8550 -89.1069 53° Northeast 424 488 33,500 -1,440 Descending Memphis Center
10:05AM 34.9267 -88.9919 53° Northeast 424 488 32,100 -1,500 Descending Memphis Center
10:06AM 34.9986 -88.8792 52° Northeast 418 481 30,600 -1,500 Descending Memphis Center
10:07AM 35.0681 -88.7614 54° Northeast 418 481 29,200 -1,500 Descending Memphis Center
10:08AM 35.1394 -88.6456 53° Northeast 418 481 27,700 -1,500 Descending Memphis Center
10:09AM 35.2108 -88.5322 52° Northeast 418 481 26,300 -1,500 Descending Memphis Center
10:10AM 35.2881 -88.4061 53° Northeast 418 481 24,800 -1,200 Descending Memphis Center
10:11AM 35.3592 -88.2897 53° Northeast 418 481 24,000 -420 Descending Memphis Center
10:12AM 35.4219 -88.1786 55° Northeast 423 487 24,000  Level Memphis Center
10:13AM 35.5031 -88.0489 52° Northeast 433 498 24,000 -540 Level Memphis Center
10:14AM 35.5739 -87.9269 54° Northeast 439 505 23,000 -1,440 Descending Memphis Center
10:15AM 35.6444 -87.8100 53° Northeast 427 491 21,200 -2,040 Descending Memphis Center
10:16AM 35.7108 -87.6956 54° Northeast 416 479 19,000 -2,040 Descending Memphis Center
10:17AM 35.7711 -87.5936 54° Northeast 416 479 17,200 -2,340 Descending Memphis Center
10:18AM 35.8292 -87.4792 58° Northeast 405 466 14,400 -2,400 Descending Memphis Center
10:19AM 35.8681 -87.3703 66° East 367 422 12,500 -2,100 Descending Memphis Center
10:20AM 35.9069 -87.2561 67° East 360 414 10,200 -1,500 Descending Memphis Center
10:21AM 35.9231 -87.1503 79° East 331 381 9,600 -900 Descending Memphis Center
10:22AM 35.9314 -87.0628 83° East 278 320 8,500 -1,620 Descending Memphis Center
10:23AM 35.9519 -86.9800 73° East 245 282 6,400 -1,980 Descending Memphis Center
10:24AM 35.9808 -86.8942 67° East 250 288 4,600 -1,800 Descending Memphis Center
10:25AM 36.0100 -86.8133 66° East 255 293 2,800 -1,140 Descending Memphis Center
10:26AM 36.0431 -86.7325 63° Northeast 245 282 2,400 -600 Descending Memphis Center
10:27AM 36.0836 -86.6972 35° Northeast 202 232 1,600 -900 Descending Memphis Center
10:28AM 36.1208 -86.6853 15° North 154 177 600 -540 Descending Memphis Center
10:29AM 36.1533 -86.6581 34° Northeast 154 177 600  Level Memphis Center